Time;durP1;ratioP1;P1;durP2;ratioP2;P2;SDS_P1;SDS_P2;PMS_P1;PMS_P2;Temp;Humidity;BMP_temperature;BMP_pressure;BME280_temperature;BME280_humidity;BME280_pressure;Samples;Min_cycle;Max_cycle;Signal;HPM_P1;HPM_P2
2024/02/20 00:00:23;0.00;0.00;0.62;0.00;0.00;0.62;3.93;3.10;;;23.20;28.40;;;;;;2264337;61;20412;-66
2024/02/20 00:03:08;0.00;0.00;0.62;0.00;0.00;0.62;5.23;3.00;;;23.10;28.40;;;;;;2264047;61;20408;-66
2024/02/20 00:05:53;0.00;0.00;0.62;0.00;0.00;0.62;4.27;3.10;;;23.10;28.40;;;;;;2264023;61;20356;-66
2024/02/20 00:08:37;0.00;0.00;0.62;0.00;0.00;0.62;3.77;2.97;;;23.10;28.40;;;;;;2264356;61;20773;-66
2024/02/20 00:11:22;0.00;0.00;0.62;0.00;0.00;0.62;3.80;3.00;;;23.20;28.50;;;;;;2263071;61;20435;-66
2024/02/20 00:14:09;0.00;0.00;0.62;0.00;0.00;0.62;3.80;2.53;;;23.10;28.40;;;;;;2260237;61;20516;-67
2024/02/20 00:16:54;0.00;0.00;0.62;0.00;0.00;0.62;3.40;2.67;;;23.10;28.40;;;;;;2257057;61;20361;-67
2024/02/20 00:19:39;0.00;0.00;0.62;0.00;0.00;0.62;3.83;2.67;;;23.10;28.40;;;;;;2259804;61;20423;-67
2024/02/20 00:22:24;0.00;0.00;0.62;0.00;0.00;0.62;4.07;2.80;;;23.10;28.40;;;;;;2259997;61;20440;-66
2024/02/20 00:25:09;0.00;0.00;0.62;0.00;0.00;0.62;4.07;2.87;;;23.20;28.50;;;;;;2259927;61;20902;-66
2024/02/20 00:27:54;0.00;0.00;0.62;0.00;0.00;0.62;3.10;2.60;;;23.10;28.40;;;;;;2259642;61;20823;-66
2024/02/20 00:30:38;0.00;0.00;0.62;0.00;0.00;0.62;3.47;2.90;;;23.10;28.40;;;;;;2260170;61;20447;-66
2024/02/20 00:33:24;0.00;0.00;0.62;0.00;0.00;0.62;4.23;2.87;;;23.10;28.90;;;;;;2259804;61;20365;-67
2024/02/20 00:36:09;0.00;0.00;0.62;0.00;0.00;0.62;3.60;2.53;;;23.10;28.40;;;;;;2259908;61;20368;-67
2024/02/20 00:38:53;0.00;0.00;0.62;0.00;0.00;0.62;3.53;2.40;;;23.10;28.40;;;;;;2259812;61;20896;-66
2024/02/20 00:41:38;0.00;0.00;0.62;0.00;0.00;0.62;3.17;2.23;;;23.10;28.40;;;;;;2259319;61;20409;-66
2024/02/20 00:44:22;0.00;0.00;0.62;0.00;0.00;0.62;4.10;2.50;;;23.10;28.90;;;;;;2259955;61;20461;-67
2024/02/20 00:47:09;0.00;0.00;0.62;0.00;0.00;0.62;3.50;2.10;;;23.10;28.40;;;;;;2261511;61;20434;-67
2024/02/20 00:49:56;0.00;0.00;0.62;0.00;0.00;0.62;3.17;2.50;;;23.10;28.40;;;;;;2263474;61;20365;-67
2024/02/20 00:52:40;0.00;0.00;0.62;0.00;0.00;0.62;2.87;2.00;;;23.10;28.40;;;;;;2264041;61;20441;-67
2024/02/20 00:55:25;0.00;0.00;0.62;0.00;0.00;0.62;3.50;2.37;;;23.10;29.00;;;;;;2263471;61;20430;-67
2024/02/20 00:58:09;0.00;0.00;0.62;0.00;0.00;0.62;2.90;2.20;;;23.10;28.40;;;;;;2263751;61;20822;-67
2024/02/20 01:00:54;0.00;0.00;0.62;0.00;0.00;0.62;2.67;2.00;;;23.10;28.40;;;;;;2263947;61;20889;-67
2024/02/20 01:03:39;0.00;0.00;0.62;0.00;0.00;0.62;2.70;2.13;;;23.10;28.40;;;;;;2263294;61;20806;-66
2024/02/20 01:06:25;0.00;0.00;0.62;0.00;0.00;0.62;3.90;2.30;;;23.10;28.40;;;;;;2263756;61;20344;-67
2024/02/20 01:09:11;0.00;0.00;0.62;0.00;0.00;0.62;4.00;2.57;;;23.10;28.40;;;;;;2263604;61;20390;-67
2024/02/20 01:11:56;0.00;0.00;0.62;0.00;0.00;0.62;3.40;2.20;;;23.10;28.40;;;;;;2263432;61;20384;-66
2024/02/20 01:14:42;0.00;0.00;0.62;0.00;0.00;0.62;3.10;2.13;;;23.10;28.40;;;;;;2260539;61;20940;-67
2024/02/20 01:17:27;0.00;0.00;0.62;0.00;0.00;0.62;4.17;2.87;;;23.10;28.40;;;;;;2263904;61;20364;-66
2024/02/20 01:20:12;0.00;0.00;0.62;0.00;0.00;0.62;2.67;1.80;;;23.10;28.40;;;;;;2263512;61;20449;-66
2024/02/20 01:22:58;0.00;0.00;0.62;0.00;0.00;0.62;2.60;2.10;;;23.10;28.40;;;;;;2263731;61;20400;-65
2024/02/20 01:25:43;0.00;0.00;0.62;0.00;0.00;0.62;2.60;1.70;;;23.10;28.40;;;;;;2263278;61;20376;-66
2024/02/20 01:28:28;0.00;0.00;0.62;0.00;0.00;0.62;2.33;1.73;;;23.10;28.40;;;;;;2263703;61;20344;-66
2024/02/20 01:31:15;0.00;0.00;0.62;0.00;0.00;0.62;3.03;1.97;;;23.10;28.40;;;;;;2264006;61;20442;-66
2024/02/20 01:34:00;0.00;0.00;0.62;0.00;0.00;0.62;2.80;1.90;;;23.10;28.40;;;;;;2263271;61;20430;-65
2024/02/20 01:36:44;0.00;0.00;0.62;0.00;0.00;0.62;2.93;2.00;;;23.10;28.40;;;;;;2258604;61;20420;-65
2024/02/20 01:39:30;0.00;0.00;0.62;0.00;0.00;0.62;2.80;1.87;;;23.10;28.40;;;;;;2259291;61;20516;-66
2024/02/20 01:42:15;0.00;0.00;0.62;0.00;0.00;0.62;3.07;2.00;;;23.10;28.40;;;;;;2259371;61;20446;-68
2024/02/20 01:44:59;0.00;0.00;0.62;0.00;0.00;0.62;2.77;1.83;;;23.10;28.40;;;;;;2259516;61;20525;-67
2024/02/20 01:47:44;0.00;0.00;0.62;0.00;0.00;0.62;2.63;1.77;;;23.10;28.40;;;;;;2259590;61;20775;-67
2024/02/20 01:50:30;0.00;0.00;0.62;0.00;0.00;0.62;2.40;1.57;;;23.10;28.40;;;;;;2259663;61;20819;-67
2024/02/20 01:53:15;0.00;0.00;0.62;0.00;0.00;0.62;3.60;1.70;;;23.10;28.40;;;;;;2259896;61;20895;-66
2024/02/20 01:56:06;0.00;0.00;0.62;0.00;0.00;0.62;2.60;1.70;;;23.10;28.40;;;;;;2259386;61;20500;-67
2024/02/20 01:58:51;0.00;0.00;0.62;0.00;0.00;0.62;3.43;2.30;;;23.10;28.40;;;;;;2259201;61;20420;-67
2024/02/20 02:01:35;0.00;0.00;0.62;0.00;0.00;0.62;2.10;1.60;;;23.10;28.40;;;;;;2259405;61;20815;-67
2024/02/20 02:04:20;0.00;0.00;0.62;0.00;0.00;0.62;2.60;1.70;;;23.10;28.50;;;;;;2259409;61;20361;-67
2024/02/20 02:07:05;0.00;0.00;0.62;0.00;0.00;0.62;2.97;2.00;;;23.10;28.40;;;;;;2259559;61;20400;-67
2024/02/20 02:09:49;0.00;0.00;0.62;0.00;0.00;0.62;5.17;2.17;;;23.10;28.40;;;;;;2256080;61;20411;-67
2024/02/20 02:12:36;0.00;0.00;0.62;0.00;0.00;0.62;3.17;2.20;;;23.10;28.40;;;;;;2262369;61;20844;-67
2024/02/20 02:15:20;0.00;0.00;0.62;0.00;0.00;0.62;2.47;1.73;;;23.10;28.40;;;;;;2263591;61;20375;-67
2024/02/20 02:18:05;0.00;0.00;0.62;0.00;0.00;0.62;2.97;2.20;;;23.10;28.90;;;;;;2263395;61;20360;-66
2024/02/20 02:20:50;0.00;0.00;0.62;0.00;0.00;0.62;2.13;1.40;;;23.10;28.40;;;;;;2263612;61;20800;-67
2024/02/20 02:23:34;0.00;0.00;0.62;0.00;0.00;0.62;2.23;1.63;;;23.10;28.40;;;;;;2264760;61;20360;-67
2024/02/20 02:26:20;0.00;0.00;0.62;0.00;0.00;0.62;3.50;1.90;;;23.10;28.40;;;;;;2264492;61;20406;-67
2024/02/20 02:29:05;0.00;0.00;0.62;0.00;0.00;0.62;2.93;1.37;;;23.10;28.40;;;;;;2265161;61;20803;-67
2024/02/20 02:31:49;0.00;0.00;0.62;0.00;0.00;0.62;2.10;1.40;;;23.10;28.40;;;;;;2264978;61;20430;-67
2024/02/20 02:34:34;0.00;0.00;0.62;0.00;0.00;0.62;2.33;1.63;;;23.10;28.40;;;;;;2260725;61;20438;-67
2024/02/20 02:37:19;0.00;0.00;0.62;0.00;0.00;0.62;2.30;1.63;;;23.10;28.40;;;;;;2257114;61;20946;-67
2024/02/20 02:40:05;0.00;0.00;0.62;0.00;0.00;0.62;2.40;1.57;;;23.10;28.40;;;;;;2260822;61;20481;-67
2024/02/20 02:42:52;0.00;0.00;0.62;0.00;0.00;0.62;2.63;1.50;;;23.10;28.40;;;;;;2258095;61;20955;-67
2024/02/20 02:45:36;0.00;0.00;0.62;0.00;0.00;0.62;2.47;1.70;;;23.10;28.40;;;;;;2260971;61;20804;-66
2024/02/20 02:48:21;0.00;0.00;0.62;0.00;0.00;0.62;2.93;1.60;;;23.10;28.40;;;;;;2263681;61;20898;-67
2024/02/20 02:51:08;0.00;0.00;0.62;0.00;0.00;0.62;2.67;1.50;;;23.10;28.90;;;;;;2263897;61;20803;-67
2024/02/20 02:53:53;0.00;0.00;0.62;0.00;0.00;0.62;2.83;1.30;;;23.10;28.40;;;;;;2264364;61;20378;-66
2024/02/20 02:56:37;0.00;0.00;0.62;0.00;0.00;0.62;2.93;1.80;;;23.10;28.40;;;;;;2264367;61;20438;-67
2024/02/20 02:59:23;0.00;0.00;0.62;0.00;0.00;0.62;1.87;1.20;;;23.10;28.40;;;;;;2264608;61;20405;-67
2024/02/20 03:02:10;0.00;0.00;0.62;0.00;0.00;0.62;2.93;1.53;;;23.10;28.40;;;;;;2263906;61;20423;-66
2024/02/20 03:04:57;0.00;0.00;0.62;0.00;0.00;0.62;2.40;1.57;;;23.00;28.30;;;;;;2261084;61;20411;-67
2024/02/20 03:07:42;0.00;0.00;0.62;0.00;0.00;0.62;2.30;1.43;;;23.10;28.40;;;;;;2263880;61;20963;-67
2024/02/20 03:10:27;0.00;0.00;0.62;0.00;0.00;0.62;1.90;1.40;;;23.00;28.30;;;;;;2263871;61;20363;-67
2024/02/20 03:13:11;0.00;0.00;0.62;0.00;0.00;0.62;2.70;1.70;;;23.10;28.40;;;;;;2260305;61;20454;-66
2024/02/20 03:15:57;0.00;0.00;0.62;0.00;0.00;0.62;2.20;1.33;;;23.00;28.30;;;;;;2259987;61;20819;-66
2024/02/20 03:18:42;0.00;0.00;0.62;0.00;0.00;0.62;2.03;1.37;;;23.10;28.40;;;;;;2260003;61;20369;-66
2024/02/20 03:21:26;0.00;0.00;0.62;0.00;0.00;0.62;3.00;1.30;;;23.00;28.30;;;;;;2260120;61;20396;-66
2024/02/20 03:24:11;0.00;0.00;0.62;0.00;0.00;0.62;2.27;1.50;;;23.00;28.30;;;;;;2259513;61;20435;-66
2024/02/20 03:26:56;0.00;0.00;0.62;0.00;0.00;0.62;2.60;1.47;;;23.00;28.30;;;;;;2260245;61;20364;-66
2024/02/20 03:29:41;0.00;0.00;0.62;0.00;0.00;0.62;2.43;1.37;;;23.00;28.30;;;;;;2259888;61;20349;-66
2024/02/20 03:32:27;0.00;0.00;0.62;0.00;0.00;0.62;3.63;1.63;;;23.00;28.30;;;;;;2259907;61;20423;-66
2024/02/20 03:35:20;0.00;0.00;0.62;0.00;0.00;0.62;2.77;1.57;;;23.00;28.30;;;;;;2259941;61;20403;-66
2024/02/20 03:38:05;0.00;0.00;0.62;0.00;0.00;0.62;2.30;1.30;;;23.00;28.30;;;;;;2256687;61;20364;-66
2024/02/20 03:40:49;0.00;0.00;0.62;0.00;0.00;0.62;2.20;1.40;;;23.00;28.30;;;;;;2259944;61;20381;-66
2024/02/20 03:43:35;0.00;0.00;0.62;0.00;0.00;0.62;2.20;1.57;;;23.00;28.30;;;;;;2260125;61;20372;-66
2024/02/20 03:46:19;0.00;0.00;0.62;0.00;0.00;0.62;2.53;1.37;;;23.00;28.30;;;;;;2259868;61;20827;-67
2024/02/20 03:49:07;0.00;0.00;0.62;0.00;0.00;0.62;2.40;1.13;;;23.00;28.30;;;;;;2264078;61;20361;-66
2024/02/20 03:51:52;0.00;0.00;0.62;0.00;0.00;0.62;2.93;1.63;;;23.00;28.30;;;;;;2263934;61;20396;-66
2024/02/20 03:54:36;0.00;0.00;0.62;0.00;0.00;0.62;2.70;1.63;;;23.00;28.30;;;;;;2263685;61;20434;-66
2024/02/20 03:57:21;0.00;0.00;0.62;0.00;0.00;0.62;2.60;1.50;;;23.00;28.30;;;;;;2264280;61;20456;-66
2024/02/20 04:00:14;0.00;0.00;0.62;0.00;0.00;0.62;1.77;1.13;;;23.00;28.80;;;;;;2263998;61;20754;-66
2024/02/20 04:02:59;0.00;0.00;0.62;0.00;0.00;0.62;3.20;1.50;;;23.00;28.30;;;;;;2263670;61;21005;-66
2024/02/20 04:05:47;0.00;0.00;0.62;0.00;0.00;0.62;2.27;1.33;;;23.00;28.30;;;;;;2263950;61;20423;-66
2024/02/20 04:08:32;0.00;0.00;0.62;0.00;0.00;0.62;2.50;1.40;;;23.00;28.80;;;;;;2263501;61;20522;-66
2024/02/20 04:11:17;0.00;0.00;0.62;0.00;0.00;0.62;2.27;1.37;;;23.00;28.30;;;;;;2264084;61;20376;-66
2024/02/20 04:14:02;0.00;0.00;0.62;0.00;0.00;0.62;2.20;1.50;;;23.00;28.30;;;;;;2263896;61;20890;-67
2024/02/20 04:16:47;0.00;0.00;0.62;0.00;0.00;0.62;2.10;1.27;;;23.00;28.40;;;;;;2263705;61;20956;-67
2024/02/20 04:19:31;0.00;0.00;0.62;0.00;0.00;0.62;2.43;1.57;;;23.00;28.30;;;;;;2263841;61;20359;-67
2024/02/20 04:22:17;0.00;0.00;0.62;0.00;0.00;0.62;3.77;1.60;;;23.00;28.80;;;;;;2263684;61;20930;-67
2024/02/20 04:25:02;0.00;0.00;0.62;0.00;0.00;0.62;2.83;1.20;;;23.00;28.30;;;;;;2263571;61;20804;-66
2024/02/20 04:27:47;0.00;0.00;0.62;0.00;0.00;0.62;2.00;1.20;;;23.00;28.30;;;;;;2263969;61;20367;-67
2024/02/20 04:30:34;0.00;0.00;0.62;0.00;0.00;0.62;2.80;1.50;;;23.00;28.30;;;;;;2263784;61;20967;-67
2024/02/20 04:33:19;0.00;0.00;0.62;0.00;0.00;0.62;1.90;1.20;;;23.00;28.30;;;;;;2263919;61;20352;-68
2024/02/20 04:36:03;0.00;0.00;0.62;0.00;0.00;0.62;4.33;1.50;;;23.00;28.30;;;;;;2263956;61;20822;-67
2024/02/20 04:38:56;0.00;0.00;0.62;0.00;0.00;0.62;2.47;1.40;;;23.00;28.30;;;;;;2263731;61;20372;-67
2024/02/20 04:41:41;0.00;0.00;0.62;0.00;0.00;0.62;3.40;1.80;;;23.00;28.80;;;;;;2263828;61;20407;-68
2024/02/20 04:44:25;0.00;0.00;0.62;0.00;0.00;0.62;3.63;1.30;;;23.00;28.30;;;;;;2263792;61;20403;-67
2024/02/20 04:47:10;0.00;0.00;0.62;0.00;0.00;0.62;2.47;1.20;;;23.00;28.30;;;;;;2261479;61;20432;-67
2024/02/20 04:49:54;0.00;0.00;0.62;0.00;0.00;0.62;2.43;1.23;;;23.00;28.30;;;;;;2259728;61;20567;-67
2024/02/20 04:52:39;0.00;0.00;0.62;0.00;0.00;0.62;1.77;1.03;;;23.00;28.30;;;;;;2259519;61;21046;-67
2024/02/20 04:55:26;0.00;0.00;0.62;0.00;0.00;0.62;2.60;1.50;;;23.00;28.30;;;;;;2259755;61;20418;-67
2024/02/20 04:58:11;0.00;0.00;0.62;0.00;0.00;0.62;2.80;1.10;;;23.00;28.30;;;;;;2259778;61;21010;-66
2024/02/20 05:00:55;0.00;0.00;0.62;0.00;0.00;0.62;1.90;1.00;;;23.00;28.30;;;;;;2259572;61;20384;-66
2024/02/20 05:03:40;0.00;0.00;0.62;0.00;0.00;0.62;2.20;1.17;;;23.00;28.30;;;;;;2259733;61;20879;-66
2024/02/20 05:06:24;0.00;0.00;0.62;0.00;0.00;0.62;3.07;1.67;;;23.00;28.30;;;;;;2259475;61;20396;-67
2024/02/20 05:09:09;0.00;0.00;0.62;0.00;0.00;0.62;2.30;1.47;;;23.00;28.30;;;;;;2259455;61;20369;-66
2024/02/20 05:11:55;0.00;0.00;0.62;0.00;0.00;0.62;2.87;1.30;;;23.00;28.30;;;;;;2261530;61;20396;-66
2024/02/20 05:14:40;0.00;0.00;0.62;0.00;0.00;0.62;3.70;1.33;;;23.00;28.30;;;;;;2263145;61;20408;-66
2024/02/20 05:17:24;0.00;0.00;0.62;0.00;0.00;0.62;3.10;1.60;;;23.00;28.80;;;;;;2263692;61;20371;-66
2024/02/20 05:20:10;0.00;0.00;0.62;0.00;0.00;0.62;2.73;1.43;;;23.00;28.40;;;;;;2263838;61;20376;-67
2024/02/20 05:22:54;0.00;0.00;0.62;0.00;0.00;0.62;5.30;2.10;;;23.00;28.30;;;;;;2263333;61;20593;-67
2024/02/20 05:25:39;0.00;0.00;0.62;0.00;0.00;0.62;2.60;1.50;;;23.00;28.40;;;;;;2263643;61;20915;-67
2024/02/20 05:28:27;0.00;0.00;0.62;0.00;0.00;0.62;4.10;2.30;;;23.00;28.30;;;;;;2263646;61;20650;-67
2024/02/20 05:31:27;0.00;0.00;0.62;0.00;0.00;0.62;2.90;1.70;;;22.90;28.30;;;;;;2263409;61;20846;-67
2024/02/20 05:34:11;0.00;0.00;0.62;0.00;0.00;0.62;7.80;3.20;;;22.90;28.30;;;;;;2260488;61;20411;-67
2024/02/20 05:36:56;0.00;0.00;0.62;0.00;0.00;0.62;3.17;2.23;;;22.90;28.30;;;;;;2263469;61;20344;-67
2024/02/20 05:39:40;0.00;0.00;0.62;0.00;0.00;0.62;4.07;3.00;;;23.00;28.30;;;;;;2263690;61;20440;-66
2024/02/20 05:42:25;0.00;0.00;0.62;0.00;0.00;0.62;5.00;3.03;;;23.00;28.40;;;;;;2263557;61;20403;-67
2024/02/20 05:45:11;0.00;0.00;0.62;0.00;0.00;0.62;4.70;2.87;;;22.90;28.30;;;;;;2263306;61;20372;-67
2024/02/20 05:47:56;0.00;0.00;0.62;0.00;0.00;0.62;5.87;3.40;;;22.90;28.30;;;;;;2264039;61;20758;-67
2024/02/20 05:50:40;0.00;0.00;0.62;0.00;0.00;0.62;6.07;3.73;;;22.90;28.30;;;;;;2263566;61;20783;-67
2024/02/20 05:53:26;0.00;0.00;0.62;0.00;0.00;0.62;7.00;3.63;;;22.90;28.20;;;;;;2263467;61;20697;-67
2024/02/20 05:56:10;0.00;0.00;0.62;0.00;0.00;0.62;5.70;3.90;;;22.90;28.30;;;;;;2263812;61;20356;-67
2024/02/20 05:58:55;0.00;0.00;0.62;0.00;0.00;0.62;6.83;4.77;;;22.90;28.20;;;;;;2263372;61;20379;-67
2024/02/20 06:01:41;0.00;0.00;0.62;0.00;0.00;0.62;7.63;4.10;;;22.90;28.20;;;;;;2263707;61;20400;-67
2024/02/20 06:04:25;0.00;0.00;0.62;0.00;0.00;0.62;7.43;4.93;;;22.90;28.80;;;;;;2263744;61;20773;-66
2024/02/20 06:07:10;0.00;0.00;0.62;0.00;0.00;0.62;5.63;4.30;;;22.90;28.30;;;;;;2263186;61;20828;-67
2024/02/20 06:09:54;0.00;0.00;0.62;0.00;0.00;0.62;5.47;4.83;;;22.90;28.20;;;;;;2263673;61;20895;-66
2024/02/20 06:12:39;0.00;0.00;0.62;0.00;0.00;0.62;7.60;5.00;;;22.90;28.20;;;;;;2260394;61;20389;-66
2024/02/20 06:15:23;0.00;0.00;0.62;0.00;0.00;0.62;7.33;5.33;;;22.90;28.20;;;;;;2255979;61;20466;-65
2024/02/20 06:18:09;0.00;0.00;0.62;0.00;0.00;0.62;8.33;5.20;;;22.90;28.20;;;;;;2259551;61;20496;-66
2024/02/20 06:20:54;0.00;0.00;0.62;0.00;0.00;0.62;6.90;5.57;;;22.90;28.20;;;;;;2259225;61;20376;-67
2024/02/20 06:23:39;0.00;0.00;0.62;0.00;0.00;0.62;6.03;4.83;;;22.90;28.20;;;;;;2259194;61;20399;-66
2024/02/20 06:26:23;0.00;0.00;0.62;0.00;0.00;0.62;9.30;5.20;;;22.90;28.20;;;;;;2259972;61;20970;-66
2024/02/20 06:29:11;0.00;0.00;0.62;0.00;0.00;0.62;5.80;4.90;;;22.90;28.20;;;;;;2259752;61;20353;-66
2024/02/20 06:31:56;0.00;0.00;0.62;0.00;0.00;0.62;7.90;5.20;;;22.90;28.20;;;;;;2260077;61;20384;-65
2024/02/20 06:34:43;0.00;0.00;0.62;0.00;0.00;0.62;6.30;4.97;;;22.90;28.20;;;;;;2259938;61;20368;-67
2024/02/20 06:37:28;0.00;0.00;0.62;0.00;0.00;0.62;8.00;4.43;;;22.90;28.20;;;;;;2259959;61;20377;-66
2024/02/20 06:40:13;0.00;0.00;0.62;0.00;0.00;0.62;6.70;5.00;;;22.90;28.20;;;;;;2260159;61;20345;-67
2024/02/20 06:42:57;0.00;0.00;0.62;0.00;0.00;0.62;8.23;6.00;;;22.90;28.20;;;;;;2259785;61;20588;-67
2024/02/20 06:45:42;0.00;0.00;0.62;0.00;0.00;0.62;8.80;6.00;;;22.90;28.20;;;;;;2259987;61;20369;-67
2024/02/20 06:48:26;0.00;0.00;0.62;0.00;0.00;0.62;7.60;5.73;;;22.90;28.20;;;;;;2259345;61;20911;-66
2024/02/20 06:51:12;0.00;0.00;0.62;0.00;0.00;0.62;7.30;5.80;;;22.90;28.20;;;;;;2260008;61;20376;-67
2024/02/20 06:53:57;0.00;0.00;0.62;0.00;0.00;0.62;7.40;5.23;;;22.90;28.20;;;;;;2260224;61;20445;-66
2024/02/20 06:56:42;0.00;0.00;0.62;0.00;0.00;0.62;7.80;5.23;;;22.90;28.20;;;;;;2260153;61;20381;-66
2024/02/20 06:59:27;0.00;0.00;0.62;0.00;0.00;0.62;7.40;5.97;;;22.90;28.20;;;;;;2259645;61;20369;-66
2024/02/20 07:02:11;0.00;0.00;0.62;0.00;0.00;0.62;6.50;4.13;;;22.90;28.20;;;;;;2259987;61;20396;-66
2024/02/20 07:04:56;0.00;0.00;0.62;0.00;0.00;0.62;8.57;5.80;;;22.90;28.20;;;;;;2256484;61;20416;-66
2024/02/20 07:07:44;0.00;0.00;0.62;0.00;0.00;0.62;8.70;5.87;;;22.90;28.20;;;;;;2259941;61;20469;-66
2024/02/20 07:10:29;0.00;0.00;0.62;0.00;0.00;0.62;7.40;5.80;;;22.90;28.20;;;;;;2260038;61;20388;-66
2024/02/20 07:13:14;0.00;0.00;0.62;0.00;0.00;0.62;11.37;5.03;;;22.80;28.10;;;;;;2259905;61;20431;-66
2024/02/20 07:15:59;0.00;0.00;0.62;0.00;0.00;0.62;6.97;4.77;;;22.80;28.10;;;;;;2259813;61;20356;-66
2024/02/20 07:18:43;0.00;0.00;0.62;0.00;0.00;0.62;9.13;5.93;;;22.80;28.10;;;;;;2260269;61;20364;-66
2024/02/20 07:21:28;0.00;0.00;0.62;0.00;0.00;0.62;8.27;4.93;;;22.80;28.10;;;;;;2259759;61;20847;-66
2024/02/20 07:24:14;0.00;0.00;0.62;0.00;0.00;0.62;7.43;4.93;;;22.80;28.10;;;;;;2256795;61;20407;-66
2024/02/20 07:26:58;0.00;0.00;0.62;0.00;0.00;0.62;7.73;5.37;;;22.80;28.10;;;;;;2260124;61;20430;-66
2024/02/20 07:29:43;0.00;0.00;0.62;0.00;0.00;0.62;7.47;5.57;;;22.80;28.10;;;;;;2259624;61;20415;-66
2024/02/20 07:32:28;0.00;0.00;0.62;0.00;0.00;0.62;9.80;6.53;;;22.90;28.20;;;;;;2259954;61;20925;-65
2024/02/20 07:35:14;0.00;0.00;0.62;0.00;0.00;0.62;8.50;6.50;;;22.80;28.10;;;;;;2259207;61;20368;-66
2024/02/20 07:37:58;0.00;0.00;0.62;0.00;0.00;0.62;9.30;5.90;;;22.80;28.10;;;;;;2259753;61;20364;-66
2024/02/20 07:40:44;0.00;0.00;0.62;0.00;0.00;0.62;8.90;6.27;;;22.80;28.10;;;;;;2260071;61;20399;-65
2024/02/20 07:43:29;0.00;0.00;0.62;0.00;0.00;0.62;8.90;6.90;;;22.80;28.60;;;;;;2259704;61;20365;-66
2024/02/20 07:46:14;0.00;0.00;0.62;0.00;0.00;0.62;7.77;5.53;;;22.80;28.10;;;;;;2259622;61;20397;-67
2024/02/20 07:48:59;0.00;0.00;0.62;0.00;0.00;0.62;8.60;6.70;;;22.80;28.10;;;;;;2259871;61;20361;-66
2024/02/20 07:51:44;0.00;0.00;0.62;0.00;0.00;0.62;9.20;7.00;;;22.80;28.10;;;;;;2259868;61;20416;-66
2024/02/20 07:54:29;0.00;0.00;0.62;0.00;0.00;0.62;10.33;7.30;;;22.80;28.10;;;;;;2260094;61;20361;-65
2024/02/20 07:57:15;0.00;0.00;0.62;0.00;0.00;0.62;8.60;7.10;;;22.90;28.20;;;;;;2259766;61;20365;-65
2024/02/20 07:59:59;0.00;0.00;0.62;0.00;0.00;0.62;9.53;7.20;;;22.80;28.60;;;;;;2259933;61;20355;-65
2024/02/20 08:02:44;0.00;0.00;0.62;0.00;0.00;0.62;13.03;8.33;;;22.90;28.20;;;;;;2259867;61;20388;-65
2024/02/20 08:05:29;0.00;0.00;0.62;0.00;0.00;0.62;8.40;6.37;;;22.80;28.10;;;;;;2259553;61;20369;-65
2024/02/20 08:08:13;0.00;0.00;0.62;0.00;0.00;0.62;8.37;6.63;;;22.90;28.20;;;;;;2256741;61;20447;-65
2024/02/20 08:10:58;0.00;0.00;0.62;0.00;0.00;0.62;10.10;7.23;;;22.80;28.10;;;;;;2259907;61;20381;-65
2024/02/20 08:13:46;0.00;0.00;0.62;0.00;0.00;0.62;9.23;6.97;;;22.80;28.10;;;;;;2255742;61;20808;-65
2024/02/20 08:16:32;0.00;0.00;0.62;0.00;0.00;0.62;9.30;7.07;;;22.80;28.10;;;;;;2255867;61;20777;-65
2024/02/20 08:19:17;0.00;0.00;0.62;0.00;0.00;0.62;10.00;7.83;;;22.80;28.10;;;;;;2255797;61;20889;-65
2024/02/20 08:22:02;0.00;0.00;0.62;0.00;0.00;0.62;9.70;6.63;;;22.80;28.10;;;;;;2255682;61;20460;-65
2024/02/20 08:24:47;0.00;0.00;0.62;0.00;0.00;0.62;10.90;6.07;;;22.80;28.00;;;;;;2255887;61;20369;-65
2024/02/20 08:27:31;0.00;0.00;0.62;0.00;0.00;0.62;7.60;6.40;;;22.80;28.10;;;;;;2255562;61;20369;-65
2024/02/20 08:30:22;0.00;0.00;0.62;0.00;0.00;0.62;10.63;6.90;;;22.80;28.10;;;;;;2255942;61;20897;-65
2024/02/20 08:33:07;0.00;0.00;0.62;0.00;0.00;0.62;8.47;6.07;;;22.80;28.00;;;;;;2255615;61;20433;-67
2024/02/20 08:35:52;0.00;0.00;0.62;0.00;0.00;0.62;8.80;7.07;;;22.80;28.10;;;;;;2255666;61;20943;-65
2024/02/20 08:38:36;0.00;0.00;0.62;0.00;0.00;0.62;9.17;6.30;;;22.80;28.10;;;;;;2255926;61;20759;-65
2024/02/20 08:41:21;0.00;0.00;0.62;0.00;0.00;0.62;8.80;6.00;;;22.80;28.00;;;;;;2255626;61;20485;-66
2024/02/20 08:44:09;0.00;0.00;0.62;0.00;0.00;0.62;9.77;7.00;;;22.80;28.00;;;;;;2255767;61;20434;-67
2024/02/20 08:46:55;0.00;0.00;0.62;0.00;0.00;0.62;8.70;6.40;;;22.90;28.20;;;;;;2255831;61;20362;-66
2024/02/20 08:49:40;0.00;0.00;0.62;0.00;0.00;0.62;8.77;5.67;;;22.80;28.00;;;;;;2255350;61;20370;-66
2024/02/20 08:52:25;0.00;0.00;0.62;0.00;0.00;0.62;8.87;5.63;;;22.80;28.00;;;;;;2255924;61;20378;-66
2024/02/20 08:55:09;0.00;0.00;0.62;0.00;0.00;0.62;8.93;6.47;;;22.80;28.00;;;;;;2255707;61;20362;-66
2024/02/20 08:57:54;0.00;0.00;0.62;0.00;0.00;0.62;9.03;6.03;;;22.80;28.00;;;;;;2255615;61;20446;-66
2024/02/20 09:00:38;0.00;0.00;0.62;0.00;0.00;0.62;8.73;6.43;;;22.80;28.00;;;;;;2255902;61;20783;-66
2024/02/20 09:03:28;0.00;0.00;0.62;0.00;0.00;0.62;8.97;7.10;;;22.80;28.00;;;;;;2255785;61;20346;-67
2024/02/20 09:06:13;0.00;0.00;0.62;0.00;0.00;0.62;7.70;5.53;;;22.80;28.00;;;;;;2255664;61;20480;-67
2024/02/20 09:08:58;0.00;0.00;0.62;0.00;0.00;0.62;10.13;6.90;;;22.80;28.10;;;;;;2255836;61;20476;-66
2024/02/20 09:11:42;0.00;0.00;0.62;0.00;0.00;0.62;7.13;6.07;;;22.80;28.10;;;;;;2255512;61;20382;-66
2024/02/20 09:14:27;0.00;0.00;0.62;0.00;0.00;0.62;8.40;5.50;;;22.80;28.10;;;;;;2255793;61;20378;-66
2024/02/20 09:17:12;0.00;0.00;0.62;0.00;0.00;0.62;9.10;5.90;;;22.90;28.20;;;;;;2255684;61;20377;-66
2024/02/20 09:19:58;0.00;0.00;0.62;0.00;0.00;0.62;7.00;5.20;;;22.90;28.20;;;;;;2255833;61;20432;-66
2024/02/20 09:22:43;0.00;0.00;0.62;0.00;0.00;0.62;8.67;5.57;;;22.90;28.30;;;;;;2255585;61;20397;-66
2024/02/20 09:25:27;0.00;0.00;0.62;0.00;0.00;0.62;6.53;5.47;;;22.90;28.30;;;;;;2255691;61;20353;-66
2024/02/20 09:28:13;0.00;0.00;0.62;0.00;0.00;0.62;9.13;5.50;;;22.90;28.20;;;;;;2255464;61;20920;-66
2024/02/20 09:30:58;0.00;0.00;0.62;0.00;0.00;0.62;8.50;5.50;;;22.90;28.20;;;;;;2256979;61;20888;-66
2024/02/20 09:33:42;0.00;0.00;0.62;0.00;0.00;0.62;8.20;5.73;;;22.90;28.20;;;;;;2257237;61;20936;-66
2024/02/20 09:36:29;0.00;0.00;0.62;0.00;0.00;0.62;6.60;5.20;;;22.90;28.20;;;;;;2257796;61;20476;-66
2024/02/20 09:39:13;0.00;0.00;0.62;0.00;0.00;0.62;8.07;5.10;;;22.90;28.20;;;;;;2256816;61;20389;-66
2024/02/20 09:42:06;0.00;0.00;0.62;0.00;0.00;0.62;9.33;5.33;;;23.00;28.30;;;;;;2256802;61;20608;-66
2024/02/20 09:44:54;0.00;0.00;0.62;0.00;0.00;0.62;6.73;4.90;;;23.00;28.30;;;;;;2257444;61;20366;-66
2024/02/20 09:47:39;0.00;0.00;0.62;0.00;0.00;0.62;8.03;5.97;;;23.00;28.30;;;;;;2257199;61;20347;-66
2024/02/20 09:50:25;0.00;0.00;0.62;0.00;0.00;0.62;8.80;5.10;;;23.00;28.30;;;;;;2257351;61;20350;-67
2024/02/20 09:53:12;0.00;0.00;0.62;0.00;0.00;0.62;7.27;5.10;;;23.00;28.20;;;;;;2257758;61;20417;-65
2024/02/20 09:55:57;0.00;0.00;0.62;0.00;0.00;0.62;7.30;4.80;;;23.00;28.20;;;;;;2257475;61;20381;-65
2024/02/20 09:58:42;0.00;0.00;0.62;0.00;0.00;0.62;5.67;4.50;;;23.10;28.30;;;;;;2255841;61;20349;-66
2024/02/20 10:01:28;0.00;0.00;0.62;0.00;0.00;0.62;8.10;4.67;;;23.10;28.30;;;;;;2255505;61;20402;-65
2024/02/20 10:04:13;0.00;0.00;0.62;0.00;0.00;0.62;4.83;4.33;;;23.10;28.20;;;;;;2255496;61;20354;-66
2024/02/20 10:07:03;0.00;0.00;0.62;0.00;0.00;0.62;6.50;4.27;;;23.10;28.20;;;;;;2252339;61;20429;-66
2024/02/20 10:09:49;0.00;0.00;0.62;0.00;0.00;0.62;5.70;4.30;;;23.10;28.20;;;;;;2255614;61;20378;-66
2024/02/20 10:12:36;0.00;0.00;0.62;0.00;0.00;0.62;8.70;4.20;;;23.10;28.20;;;;;;2255353;61;20478;-66
2024/02/20 10:15:21;0.00;0.00;0.62;0.00;0.00;0.62;5.43;4.83;;;23.10;28.20;;;;;;2255730;61;20354;-66
2024/02/20 10:18:06;0.00;0.00;0.62;0.00;0.00;0.62;6.10;4.83;;;23.20;28.20;;;;;;2255292;61;20874;-67
2024/02/20 10:21:02;0.00;0.00;0.62;0.00;0.00;0.62;6.23;3.97;;;23.20;28.20;;;;;;2255434;61;20401;-67
2024/02/20 10:23:47;0.00;0.00;0.62;0.00;0.00;0.62;5.70;4.10;;;23.20;28.20;;;;;;2255362;61;20359;-66
2024/02/20 10:26:34;0.00;0.00;0.62;0.00;0.00;0.62;4.80;3.60;;;23.20;28.20;;;;;;2255354;61;20365;-66
2024/02/20 10:29:19;0.00;0.00;0.62;0.00;0.00;0.62;6.97;4.40;;;23.20;28.20;;;;;;2255380;61;20366;-67
2024/02/20 10:32:04;0.00;0.00;0.62;0.00;0.00;0.62;6.23;4.07;;;23.20;28.10;;;;;;2255252;61;20944;-66
2024/02/20 10:34:58;0.00;0.00;0.62;0.00;0.00;0.62;6.70;4.23;;;23.20;28.10;;;;;;2255422;61;20803;-66
2024/02/20 10:37:44;0.00;0.00;0.62;0.00;0.00;0.62;6.53;4.43;;;23.20;28.60;;;;;;2255250;61;20446;-66
2024/02/20 10:40:30;0.00;0.00;0.62;0.00;0.00;0.62;7.00;3.90;;;23.30;28.20;;;;;;2255380;61;20405;-66
2024/02/20 10:43:17;0.00;0.00;0.62;0.00;0.00;0.62;6.07;3.80;;;23.30;28.10;;;;;;2252131;61;20414;-66
2024/02/20 10:46:02;0.00;0.00;0.62;0.00;0.00;0.62;4.17;3.53;;;23.30;28.10;;;;;;2255228;61;20355;-66
2024/02/20 10:48:50;0.00;0.00;0.62;0.00;0.00;0.62;4.80;3.73;;;23.30;28.10;;;;;;2680520;45;20393;-66
2024/02/20 10:51:36;0.00;0.00;0.62;0.00;0.00;0.62;5.83;3.43;;;23.30;28.10;;;;;;2255534;61;20455;-66